createdAt,value
2019-04-27T00:02:24.801Z,10.01
2019-04-27T00:05:26.603Z,10.04
2019-04-27T00:08:21.343Z,9.91
2019-04-27T00:11:09.754Z,9.87
2019-04-27T00:13:42.312Z,9.93
2019-04-27T00:16:40.433Z,9.93
2019-04-27T00:19:31.800Z,9.90
2019-04-27T00:22:18.851Z,9.87
2019-04-27T00:24:48.097Z,9.91
2019-04-27T00:27:20.495Z,9.77
2019-04-27T00:29:50.014Z,9.66
2019-04-27T00:32:19.500Z,9.72
2019-04-27T00:34:49.364Z,9.58
2019-04-27T00:37:26.490Z,9.51
2019-04-27T00:40:06.684Z,9.67
2019-04-27T00:42:37.637Z,9.69
2019-04-27T00:45:07.579Z,9.63
2019-04-27T00:47:37.279Z,9.32
2019-04-27T00:50:08.592Z,9.48
2019-04-27T00:52:40.924Z,9.52
2019-04-27T00:55:10.107Z,9.48
2019-04-27T00:57:58.913Z,9.48
2019-04-27T01:00:47.793Z,9.51
2019-04-27T01:03:37.080Z,9.60
2019-04-27T01:06:06.648Z,9.56
2019-04-27T01:08:35.924Z,9.52
2019-04-27T01:11:05.210Z,9.36
2019-04-27T01:13:35.160Z,9.41
2019-04-27T01:16:06.285Z,9.39
2019-04-27T01:18:35.785Z,9.43
2019-04-27T01:21:05.336Z,9.18
2019-04-27T01:23:35.246Z,9.12
2019-04-27T01:26:18.728Z,9.32
2019-04-27T01:28:53.515Z,9.28
2019-04-27T01:31:25.827Z,9.28
2019-04-27T01:33:56.061Z,9.38
2019-04-27T01:36:26.587Z,9.38
2019-04-27T01:38:57.246Z,9.38
2019-04-27T01:41:29.066Z,9.41
2019-04-27T01:43:59.147Z,9.20
2019-04-27T01:46:29.746Z,9.31
2019-04-27T01:49:00.863Z,9.35
2019-04-27T01:51:31.957Z,9.18
2019-04-27T01:54:01.685Z,9.23
2019-04-27T01:56:35.984Z,9.25
2019-04-27T01:59:05.616Z,9.22
2019-04-27T02:01:50.959Z,9.27
2019-04-27T02:04:31.646Z,9.21
2019-04-27T02:07:09.099Z,9.31
2019-04-27T02:09:38.759Z,9.22
2019-04-27T02:12:09.365Z,9.37
2019-04-27T02:14:41.812Z,9.35
2019-04-27T02:17:11.467Z,9.29
2019-04-27T02:19:42.395Z,9.38
2019-04-27T02:22:11.556Z,9.42
2019-04-27T02:24:41.677Z,9.28
2019-04-27T02:27:13.173Z,9.16
2019-04-27T02:30:06.392Z,9.07
2019-04-27T02:32:53.284Z,8.99
2019-04-27T02:35:23.440Z,9.05
2019-04-27T02:37:52.597Z,9.16
2019-04-27T02:40:50.353Z,9.18
2019-04-27T02:43:21.591Z,9.21
2019-04-27T02:45:51.032Z,9.14
2019-04-27T02:48:22.273Z,9.24
2019-04-27T02:50:53.846Z,9.23
2019-04-27T02:53:43.285Z,9.00
2019-04-27T02:56:12.487Z,9.05
2019-04-27T02:58:42.228Z,9.11
2019-04-27T03:01:12.175Z,8.93
2019-04-27T03:03:41.372Z,9.12
2019-04-27T03:06:10.859Z,9.11
2019-04-27T03:08:42.743Z,9.18
2019-04-27T03:11:12.241Z,8.99
2019-04-27T03:14:04.067Z,9.09
2019-04-27T03:17:01.440Z,9.08
2019-04-27T03:19:56.872Z,9.03
2019-04-27T03:22:39.956Z,9.00
2019-04-27T03:25:31.915Z,9.00
2019-04-27T03:28:26.904Z,8.97
2019-04-27T03:30:56.792Z,9.05
2019-04-27T03:33:31.985Z,8.92
2019-04-27T03:36:02.654Z,8.89
2019-04-27T03:38:31.029Z,8.95
2019-04-27T03:41:00.704Z,8.99
2019-04-27T03:43:30.317Z,8.87
2019-04-27T03:46:00.624Z,8.92
2019-04-27T03:48:30.687Z,8.99
2019-04-27T03:51:22.126Z,8.95
2019-04-27T03:54:10.391Z,8.81
2019-04-27T03:56:50.790Z,8.74
2019-04-27T03:59:54.910Z,8.72
2019-04-27T04:02:24.114Z,8.71
2019-04-27T04:04:53.802Z,8.74
2019-04-27T04:07:23.558Z,8.78
2019-04-27T04:09:52.735Z,8.91
2019-04-27T04:12:40.229Z,8.72
2019-04-27T04:15:13.237Z,8.71
2019-04-27T04:17:42.797Z,8.84
2019-04-27T04:20:13.115Z,8.92
2019-04-27T04:22:43.383Z,8.92
2019-04-27T04:25:13.081Z,8.93
2019-04-27T04:27:43.352Z,8.97
2019-04-27T04:30:14.190Z,8.96
2019-04-27T04:32:43.846Z,8.85
2019-04-27T04:35:21.425Z,8.97
2019-04-27T04:37:52.954Z,8.80
2019-04-27T04:40:31.256Z,8.98
2019-04-27T04:43:06.708Z,8.92
2019-04-27T04:45:50.129Z,8.96
2019-04-27T04:48:21.260Z,9.04
2019-04-27T04:50:53.080Z,9.06
2019-04-27T04:53:24.596Z,8.94
2019-04-27T04:55:54.000Z,8.89
2019-04-27T04:58:23.286Z,8.82
2019-04-27T05:00:54.062Z,8.82
2019-04-27T05:03:30.822Z,8.75
2019-04-27T05:06:00.030Z,8.78
2019-04-27T05:08:29.317Z,8.83
2019-04-27T05:10:59.684Z,8.92
2019-04-27T05:13:29.420Z,8.88
2019-04-27T05:15:59.010Z,8.79
2019-04-27T05:18:29.288Z,8.75
2019-04-27T05:21:04.898Z,8.71
2019-04-27T05:23:34.458Z,8.68
2019-04-27T05:26:03.965Z,8.68
2019-04-27T05:28:40.625Z,8.64
2019-04-27T05:31:10.136Z,8.71
2019-04-27T05:33:39.324Z,8.74
2019-04-27T05:36:09.223Z,8.60
2019-04-27T05:38:41.911Z,8.50
2019-04-27T05:41:09.669Z,8.34
2019-04-27T05:43:59.174Z,8.57
2019-04-27T05:46:47.595Z,8.45
2019-04-27T05:49:25.021Z,8.58
2019-04-27T05:51:54.168Z,8.52
2019-04-27T05:54:23.345Z,8.67
2019-04-27T05:56:53.272Z,8.74
2019-04-27T05:59:22.456Z,8.85
2019-04-27T06:01:51.626Z,8.77
2019-04-27T06:04:20.795Z,8.85
2019-04-27T06:06:50.070Z,9.01
2019-04-27T06:09:19.643Z,9.03
2019-04-27T06:11:50.645Z,8.86
2019-04-27T06:14:19.887Z,8.97
2019-04-27T06:16:51.338Z,8.95
2019-04-27T06:19:20.323Z,8.95
2019-04-27T06:21:51.205Z,8.88
2019-04-27T06:24:20.410Z,8.95
2019-04-27T06:26:49.967Z,9.11
2019-04-27T06:29:19.815Z,9.21
2019-04-27T06:31:49.759Z,9.34
2019-04-27T06:34:20.172Z,9.42
2019-04-27T06:36:50.163Z,9.37
2019-04-27T06:39:20.835Z,9.50
2019-04-27T06:41:50.077Z,9.52
2019-04-27T06:44:19.743Z,9.63
2019-04-27T06:46:49.876Z,9.54
2019-04-27T06:49:20.064Z,9.64
2019-04-27T06:51:49.989Z,9.61
2019-04-27T06:54:21.474Z,9.69
2019-04-27T06:56:51.709Z,9.73
2019-04-27T06:59:20.896Z,9.77
2019-04-27T07:01:54.192Z,9.80
2019-04-27T07:04:24.440Z,9.82
2019-04-27T07:06:56.226Z,10.06
2019-04-27T07:09:25.733Z,10.13
2019-04-27T07:11:54.937Z,10.12
2019-04-27T07:14:25.351Z,10.27
2019-04-27T07:16:59.863Z,10.24
2019-04-27T07:19:30.704Z,10.18
2019-04-27T07:22:00.744Z,10.34
2019-04-27T07:24:41.702Z,10.45
2019-04-27T07:27:15.370Z,10.53
2019-04-27T07:29:45.247Z,10.53
2019-04-27T07:32:14.765Z,10.62
2019-04-27T07:34:44.455Z,10.80
2019-04-27T07:37:13.642Z,10.88
2019-04-27T07:39:43.060Z,10.87
2019-04-27T07:42:12.542Z,10.97
2019-04-27T07:44:53.086Z,10.88
2019-04-27T07:47:29.416Z,11.18
2019-04-27T07:50:01.474Z,11.20
2019-04-27T07:52:34.418Z,11.37
2019-04-27T07:55:04.029Z,11.46
2019-04-27T07:57:52.079Z,11.51
2019-04-27T08:00:24.800Z,11.49
2019-04-27T08:02:54.049Z,11.44
2019-04-27T08:05:23.261Z,11.57
2019-04-27T08:07:53.271Z,11.61
2019-04-27T08:10:22.246Z,11.43
2019-04-27T08:12:52.478Z,11.52
2019-04-27T08:15:21.726Z,11.65
2019-04-27T08:17:51.250Z,11.71
2019-04-27T08:20:21.181Z,11.63
2019-04-27T08:22:50.804Z,11.67
2019-04-27T08:25:19.961Z,11.61
2019-04-27T08:27:57.045Z,11.66
2019-04-27T08:30:58.550Z,11.64
2019-04-27T08:33:29.006Z,11.74
2019-04-27T08:35:59.099Z,11.56
2019-04-27T08:38:29.026Z,11.58
2019-04-27T08:40:59.235Z,11.56
2019-04-27T08:43:28.979Z,11.54
2019-04-27T08:46:00.357Z,11.55
2019-04-27T08:48:36.046Z,11.58
2019-04-27T08:51:01.583Z,11.63
2019-04-27T08:53:31.406Z,11.72
2019-04-27T08:56:02.631Z,11.66
2019-04-27T08:58:32.938Z,11.64
2019-04-27T09:01:02.441Z,11.52
2019-04-27T09:03:31.933Z,11.61
2019-04-27T09:06:02.762Z,11.65
2019-04-27T09:08:49.353Z,11.64
2019-04-27T09:11:39.811Z,11.53
2019-04-27T09:14:15.371Z,11.50
2019-04-27T09:17:00.077Z,11.41
2019-04-27T09:19:40.566Z,11.25
2019-04-27T09:22:16.003Z,11.34
2019-04-27T09:24:40.624Z,11.34
2019-04-27T09:27:09.794Z,11.18
2019-04-27T09:29:42.480Z,11.24
2019-04-27T09:32:12.161Z,11.16
2019-04-27T09:34:41.658Z,11.12
2019-04-27T09:37:10.828Z,11.05
2019-04-27T09:39:41.467Z,11.12
2019-04-27T09:42:10.738Z,11.05
2019-04-27T09:44:41.743Z,11.08
2019-04-27T09:47:12.264Z,11.11
2019-04-27T09:49:41.427Z,11.12
2019-04-27T09:52:23.611Z,10.98
2019-04-27T09:54:44.027Z,11.03
2019-04-27T09:57:15.896Z,11.03
2019-04-27T09:59:48.953Z,10.99
2019-04-27T10:02:19.475Z,10.95
2019-04-27T10:04:48.970Z,10.98
2019-04-27T10:07:18.152Z,11.21
2019-04-27T10:09:47.622Z,11.15
2019-04-27T10:12:17.597Z,11.13
2019-04-27T10:14:47.876Z,11.32
2019-04-27T10:17:17.071Z,11.22
2019-04-27T10:19:46.277Z,11.10
2019-04-27T10:22:15.937Z,11.00
2019-04-27T10:24:45.255Z,11.13
2019-04-27T10:27:16.159Z,10.98
2019-04-27T10:29:46.787Z,11.03
2019-04-27T10:32:16.238Z,10.91
2019-04-27T10:34:45.748Z,10.86
2019-04-27T10:37:16.082Z,10.77
2019-04-27T10:39:46.377Z,10.74
2019-04-27T10:42:16.453Z,10.95
2019-04-27T10:44:46.219Z,10.87
2019-04-27T10:47:16.049Z,10.85
2019-04-27T10:49:48.004Z,11.04
2019-04-27T10:52:17.214Z,11.11
2019-04-27T10:54:46.614Z,11.43
2019-04-27T10:57:15.929Z,11.35
2019-04-27T10:59:46.153Z,11.42
2019-04-27T11:02:15.842Z,11.47
2019-04-27T11:04:54.195Z,11.55
2019-04-27T11:07:26.076Z,11.75
2019-04-27T11:09:57.515Z,11.89
2019-04-27T11:12:27.042Z,11.81
2019-04-27T11:14:56.199Z,11.89
2019-04-27T11:17:26.730Z,11.78
2019-04-27T11:19:55.938Z,11.72
2019-04-27T11:22:26.072Z,11.52
2019-04-27T11:24:56.389Z,11.60
2019-04-27T11:27:25.688Z,11.52
2019-04-27T11:29:56.428Z,11.51
2019-04-27T11:32:25.672Z,11.33
2019-04-27T11:35:16.626Z,11.49
2019-04-27T11:37:45.812Z,11.40
2019-04-27T11:40:15.566Z,11.48
2019-04-27T11:42:44.766Z,11.41
2019-04-27T11:45:14.350Z,11.39
2019-04-27T11:47:45.815Z,11.35
2019-04-27T11:50:16.686Z,11.44
2019-04-27T11:52:45.891Z,11.46
2019-04-27T11:55:16.368Z,11.23
2019-04-27T11:57:47.008Z,11.38
2019-04-27T12:00:21.399Z,11.59
2019-04-27T12:02:50.934Z,11.62
2019-04-27T12:05:20.234Z,11.65
2019-04-27T12:07:50.050Z,11.69
2019-04-27T12:10:19.808Z,11.51
2019-04-27T12:12:49.566Z,11.63
2019-04-27T12:15:21.301Z,11.53
2019-04-27T12:17:51.042Z,11.52
2019-04-27T12:20:20.476Z,11.46
2019-04-27T12:22:49.910Z,11.36
2019-04-27T12:25:20.256Z,11.36
2019-04-27T12:28:07.105Z,11.48
2019-04-27T12:30:54.006Z,11.42
2019-04-27T12:33:23.499Z,11.23
2019-04-27T12:35:52.656Z,11.37
2019-04-27T12:38:21.840Z,11.34
2019-04-27T12:40:50.997Z,11.28
2019-04-27T12:43:21.366Z,10.99
2019-04-27T12:45:50.519Z,11.19
2019-04-27T12:48:20.060Z,11.19
2019-04-27T12:50:49.230Z,11.07
2019-04-27T12:53:48.600Z,11.07
2019-04-27T12:56:21.291Z,11.03
2019-04-27T12:58:57.739Z,10.99
2019-04-27T13:01:27.897Z,11.14
2019-04-27T13:03:59.068Z,11.22
2019-04-27T13:06:28.006Z,11.19
2019-04-27T13:08:57.177Z,11.38
2019-04-27T13:11:26.771Z,11.47
2019-04-27T13:13:57.628Z,11.29
2019-04-27T13:16:30.199Z,11.18
2019-04-27T13:18:59.041Z,11.46
2019-04-27T13:21:28.225Z,11.44
2019-04-27T13:24:04.402Z,11.37
2019-04-27T13:26:33.142Z,11.30
2019-04-27T13:29:02.352Z,11.51
2019-04-27T13:31:31.507Z,11.44
2019-04-27T13:34:02.697Z,11.17
2019-04-27T13:36:33.075Z,11.33
2019-04-27T13:39:02.308Z,11.08
2019-04-27T13:41:32.906Z,9.06
2019-04-27T13:44:02.485Z,8.51
2019-04-27T13:46:51.636Z,7.97
2019-04-27T13:49:40.155Z,7.58
2019-04-27T13:52:17.893Z,7.29
2019-04-27T13:54:47.428Z,7.20
2019-04-27T13:57:18.390Z,7.28
2019-04-27T13:59:47.627Z,7.30
2019-04-27T14:02:16.811Z,7.39
2019-04-27T14:04:46.009Z,7.43
2019-04-27T14:07:15.242Z,7.50
2019-04-27T14:09:44.701Z,7.62
2019-04-27T14:12:21.630Z,7.64
2019-04-27T14:14:51.214Z,7.71
2019-04-27T14:17:20.372Z,7.68
2019-04-27T14:19:49.550Z,7.81
2019-04-27T14:22:18.984Z,7.85
2019-04-27T14:24:49.074Z,7.79
2019-04-27T14:27:19.328Z,7.79
2019-04-27T14:29:49.058Z,7.73
2019-04-27T14:32:18.732Z,7.70
2019-04-27T14:34:50.391Z,7.80
2019-04-27T14:37:19.498Z,7.95
2019-04-27T14:39:49.061Z,7.99
2019-04-27T14:42:19.250Z,7.83
2019-04-27T14:44:49.082Z,8.00
2019-04-27T14:47:18.882Z,8.04
2019-04-27T14:49:49.054Z,7.85
2019-04-27T14:52:20.455Z,7.98
2019-04-27T14:54:50.817Z,8.22
2019-04-27T14:57:21.105Z,8.48
2019-04-27T14:59:51.832Z,8.58
2019-04-27T15:02:21.591Z,8.49
2019-04-27T15:04:53.063Z,8.36
2019-04-27T15:07:22.209Z,8.15
2019-04-27T15:09:54.469Z,8.06
2019-04-27T15:12:30.809Z,8.22
2019-04-27T15:15:01.531Z,8.36
2019-04-27T15:17:31.519Z,8.36
2019-04-27T15:20:06.201Z,8.47
2019-04-27T15:22:35.837Z,8.51
2019-04-27T15:25:12.373Z,8.44
2019-04-27T15:27:42.150Z,8.66
2019-04-27T15:30:18.552Z,8.59
2019-04-27T15:33:16.198Z,8.70
2019-04-27T15:35:51.412Z,8.65
2019-04-27T15:38:25.332Z,8.85
2019-04-27T15:41:12.616Z,8.46
2019-04-27T15:43:43.182Z,8.61
2019-04-27T15:46:12.847Z,8.76
2019-04-27T15:48:43.002Z,9.16
2019-04-27T15:51:17.278Z,9.11
2019-04-27T15:53:50.945Z,9.43
2019-04-27T15:56:21.579Z,9.46
2019-04-27T15:58:51.701Z,9.90
2019-04-27T16:01:23.986Z,9.43
2019-04-27T16:03:53.968Z,9.86
2019-04-27T16:06:24.553Z,9.48
2019-04-27T16:08:53.983Z,9.91
2019-04-27T16:11:23.900Z,9.82
2019-04-27T16:13:53.219Z,10.51
2019-04-27T16:16:24.554Z,9.93
2019-04-27T16:18:54.646Z,10.33
2019-04-27T16:21:24.198Z,10.36
2019-04-27T16:23:55.035Z,11.00
2019-04-27T16:26:24.501Z,11.41
2019-04-27T16:28:54.773Z,12.02
2019-04-27T16:31:24.784Z,12.34
2019-04-27T16:33:59.254Z,11.87
2019-04-27T16:36:28.840Z,12.43
2019-04-27T16:39:03.601Z,12.76
2019-04-27T16:41:37.333Z,12.96
2019-04-27T16:44:10.815Z,12.83
2019-04-27T16:46:43.877Z,11.77
2019-04-27T16:49:15.053Z,11.64
2019-04-27T16:51:44.433Z,11.62
2019-04-27T16:54:17.557Z,11.21
2019-04-27T16:56:45.620Z,10.96
2019-04-27T16:59:36.441Z,10.81
2019-04-27T17:01:47.681Z,10.67
2019-04-27T17:04:18.873Z,10.66
2019-04-27T17:06:49.499Z,10.52
2019-04-27T17:09:19.383Z,10.35
2019-04-27T17:11:54.039Z,10.35
2019-04-27T17:14:46.358Z,10.33
2019-04-27T17:17:42.747Z,10.01
2019-04-27T17:20:17.798Z,9.99
2019-04-27T17:22:45.586Z,9.86
2019-04-27T17:25:23.231Z,9.94
2019-04-27T17:28:04.246Z,10.08
2019-04-27T17:30:37.911Z,10.22
2019-04-27T17:33:20.546Z,10.22
2019-04-27T17:35:48.927Z,10.07
2019-04-27T17:38:20.042Z,9.86
2019-04-27T17:40:51.794Z,9.82
2019-04-27T17:43:23.792Z,9.77
2019-04-27T17:45:54.460Z,9.56
2019-04-27T17:48:25.019Z,9.48
2019-04-27T17:50:55.852Z,8.77
2019-04-27T17:53:29.815Z,9.09
2019-04-27T17:56:02.946Z,8.69
2019-04-27T17:58:28.973Z,8.93
2019-04-27T18:00:59.952Z,8.45
2019-04-27T18:03:30.104Z,8.19
2019-04-27T18:06:00.153Z,8.22
2019-04-27T18:08:31.264Z,8.12
2019-04-27T18:11:03.143Z,8.32
2019-04-27T18:13:31.847Z,8.25
2019-04-27T18:16:01.339Z,8.18
2019-04-27T18:18:50.297Z,8.00
2019-04-27T18:21:29.517Z,8.13
2019-04-27T18:24:09.794Z,7.87
2019-04-27T18:26:51.575Z,7.77
2019-04-27T18:29:22.792Z,7.43
2019-04-27T18:31:54.728Z,7.38
2019-04-27T18:34:24.022Z,7.33
2019-04-27T18:36:53.976Z,7.20
2019-04-27T18:39:23.940Z,7.22
2019-04-27T18:41:54.417Z,7.44
2019-04-27T18:44:31.966Z,7.44
2019-04-27T18:47:03.482Z,7.27
2019-04-27T18:49:55.350Z,7.26
2019-04-27T18:52:47.339Z,7.30
2019-04-27T18:55:16.823Z,7.09
2019-04-27T18:57:45.937Z,7.08
2019-04-27T19:00:17.088Z,7.01
2019-04-27T19:02:48.229Z,7.08
2019-04-27T19:05:18.865Z,6.97
2019-04-27T19:07:48.636Z,7.18
2019-04-27T19:10:19.260Z,7.23
2019-04-27T19:12:48.807Z,7.26
2019-04-27T19:15:18.472Z,7.20
2019-04-27T19:17:48.913Z,6.93
2019-04-27T19:20:19.524Z,7.04
2019-04-27T19:22:49.211Z,7.10
2019-04-27T19:25:30.956Z,6.96
2019-04-27T19:28:20.219Z,6.75
2019-04-27T19:30:54.877Z,6.72
2019-04-27T19:33:24.299Z,6.72
2019-04-27T19:35:53.539Z,6.73
2019-04-27T19:38:23.300Z,6.85
2019-04-27T19:40:52.497Z,6.79
2019-04-27T19:43:21.939Z,6.85
2019-04-27T19:45:53.099Z,6.95
2019-04-27T19:48:23.460Z,6.96
2019-04-27T19:50:52.644Z,6.94
2019-04-27T19:53:23.100Z,7.02
2019-04-27T19:56:04.481Z,7.05
2019-04-27T19:58:41.601Z,6.99
2019-04-27T20:01:17.018Z,7.05
2019-04-27T20:03:55.264Z,6.97
2019-04-27T20:06:24.786Z,7.02
2019-04-27T20:08:55.670Z,6.92
2019-04-27T20:11:24.947Z,6.88
2019-04-27T20:14:00.878Z,6.91
2019-04-27T20:16:31.747Z,6.88
2019-04-27T20:19:02.676Z,6.81
2019-04-27T20:21:32.134Z,6.81
2019-04-27T20:24:01.782Z,6.80
2019-04-27T20:26:31.262Z,6.94
2019-04-27T20:29:02.217Z,6.99
2019-04-27T20:31:36.471Z,6.90
2019-04-27T20:34:05.712Z,6.94
2019-04-27T20:36:35.619Z,6.97
2019-04-27T20:39:08.037Z,7.20
2019-04-27T20:41:37.242Z,7.39
2019-04-27T20:44:06.974Z,7.51
2019-04-27T20:46:36.150Z,7.60
2019-04-27T20:49:17.268Z,7.68
2019-04-27T20:51:56.166Z,7.75
2019-04-27T20:54:25.378Z,7.75
2019-04-27T20:56:57.170Z,7.64
2019-04-27T20:59:25.427Z,7.61
2019-04-27T21:01:54.627Z,7.78
2019-04-27T21:04:27.257Z,7.79
2019-04-27T21:07:01.180Z,7.69
2019-04-27T21:09:32.330Z,7.70
2019-04-27T21:12:01.862Z,7.66
2019-04-27T21:14:31.653Z,7.13
2019-04-27T21:17:01.776Z,6.97
2019-04-27T21:19:31.281Z,6.99
2019-04-27T21:22:01.206Z,7.04
2019-04-27T21:24:31.111Z,7.07
2019-04-27T21:27:00.724Z,7.07
2019-04-27T21:29:31.138Z,7.08
2019-04-27T21:32:01.034Z,6.97
2019-04-27T21:34:31.482Z,7.09
2019-04-27T21:37:01.149Z,7.16
2019-04-27T21:39:31.895Z,7.30
2019-04-27T21:42:03.348Z,7.34
2019-04-27T21:44:32.843Z,7.55
2019-04-27T21:47:02.340Z,7.62
2019-04-27T21:49:32.266Z,7.49
2019-04-27T21:52:08.455Z,7.59
2019-04-27T21:54:38.647Z,7.50
2019-04-27T21:57:08.211Z,7.57
2019-04-27T21:59:37.385Z,7.24
2019-04-27T22:02:07.987Z,7.35
2019-04-27T22:04:37.285Z,7.15
2019-04-27T22:07:06.689Z,7.08
2019-04-27T22:09:37.926Z,7.13
2019-04-27T22:12:07.099Z,7.14
2019-04-27T22:14:37.303Z,7.23
2019-04-27T22:17:07.098Z,7.26
2019-04-27T22:19:36.286Z,7.13
2019-04-27T22:22:10.644Z,7.21
2019-04-27T22:24:42.809Z,7.16
2019-04-27T22:27:12.143Z,7.10
2019-04-27T22:29:41.602Z,7.04
2019-04-27T22:32:12.607Z,6.92
2019-04-27T22:34:42.609Z,6.84
2019-04-27T22:37:12.490Z,6.95
2019-04-27T22:40:09.388Z,7.06
2019-04-27T22:42:58.172Z,7.06
2019-04-27T22:45:33.566Z,6.95
2019-04-27T22:48:03.524Z,6.93
2019-04-27T22:50:35.136Z,6.98
2019-04-27T22:53:05.201Z,6.97
2019-04-27T22:55:36.749Z,6.99
2019-04-27T22:58:13.183Z,7.10
2019-04-27T23:00:52.113Z,7.12
2019-04-27T23:03:28.211Z,6.99
2019-04-27T23:06:02.049Z,7.23
2019-04-27T23:08:31.772Z,6.97
2019-04-27T23:11:02.643Z,6.83
2019-04-27T23:13:32.435Z,6.80
2019-04-27T23:16:07.014Z,6.83
2019-04-27T23:18:37.069Z,6.74
2019-04-27T23:21:07.049Z,6.83
2019-04-27T23:23:36.246Z,6.86
2019-04-27T23:26:08.039Z,6.74
2019-04-27T23:28:37.552Z,6.83
2019-04-27T23:31:13.652Z,6.76
2019-04-27T23:33:46.515Z,6.83
2019-04-27T23:36:15.956Z,6.79
2019-04-27T23:38:45.128Z,6.70
2019-04-27T23:41:14.602Z,6.62
2019-04-27T23:43:45.838Z,6.63
2019-04-27T23:46:19.032Z,6.71
2019-04-27T23:48:51.933Z,6.60
2019-04-27T23:51:39.323Z,6.73
2019-04-27T23:54:09.050Z,6.58
2019-04-27T23:56:41.883Z,6.54
2019-04-27T23:59:23.790Z,6.56
